Historyczne dane pomiarowe

Dodano dane terminowe – wersja testowa.

Dane z okresu 1951-2019

Wersja bazy: 1.34 [2019-03-16, lista zmian], aktualizacja planowana na 2019-04-15

Dane meteo z obszaru Polski uzyskane na podstawie danych udostępnionych przez Instytut Meteorologii i Gospodarki Wodnej – Państwowy Instytut Badawczy.

 

Wybierz Datę:    

       

TemperaturaWilgotnośćZachmurzenieWiatrCiśnienieWidzialnośćZjawiska
 Data    tng td wb rh cc ccl cl cm ch dir g1 g2 mslp ppp      
1973-04-21 00:00:00 -5.7--- -6.1 -5.697wxwx18wx--- 822.9 9.1---wxw1
1973-04-21 01:00:00 -5.7------wxwx17wx--- 822.9----wxw1
1973-04-21 02:00:00 -5.8------wxwx19wx--- 822.8----wxw1
1973-04-21 03:00:00 -5.8--- -6.2 -5.797wxwx18wx--- 822.8----wxw1
1973-04-21 04:00:00 -5.9------wxwx21wx--- 822.6----wxw1
1973-04-21 05:00:00 -5.8------wxwx24wx--- 822.0----wxw1
1973-04-21 06:00:00 -5.9--- -6.3 -5.897wxwx23wx--- 822.0 10.8---wxw1
1973-04-21 07:00:00 -5.8------wxwx23wx--- 822.1----wxw1
1973-04-21 08:00:00 -5.8------wxwx21wx--- 821.9----wxw1
1973-04-21 09:00:00 -5.4--- -5.7 -5.398wxwx18wx--- 821.9----wxw1
1973-04-21 10:00:00 -5.4------wxwx17wx--- 821.9----wxw1
1973-04-21 11:00:00 -5.2------wxwx17wx--- 822.1----wxw1
1973-04-21 12:00:00 -5.0--- -5.6 -5.095wxwx20wx--- 821.7 17.6---wxw1
1973-04-21 13:00:00 -5.0------wxwx18wx--- 821.9----wxw1
1973-04-21 14:00:00 -5.0------wxwx16wx--- 822.0----wxw1
1973-04-21 15:00:00 -5.0--- -5.6 -5.095wxwx17wx--- 822.2----wxw1
1973-04-21 16:00:00 -5.2------wxwx18wx--- 822.1----wxw1
1973-04-21 17:00:00 -5.2------wxwx16wx--- 822.4----wxw1
1973-04-21 18:00:00 -5.4--- -5.4 -5.2100wxwx16wx--- 822.9 16.1---wxw1
1973-04-21 19:00:00 -5.4------wxwx9wx--- 823.4----wxw1
1973-04-21 20:00:00 -5.5------wxwx6wx--- 823.8----wxw1
1973-04-21 21:00:00 -5.4--- -5.7 -5.398wxwx5wx--- 823.9----wxw1
1973-04-21 22:00:00 -5.6------wxwx4wx--- 824.0----wxw1
1973-04-21 23:00:00 -5.2------wxwx0wx--- 824.1----wxw1

 

Źródłem pochodzenia danych jest Instytut Meteorologii i Gospodarki Wodnej – Państwowy Instytut Badawczy. Dane Instytutu Meteorologii i Gospodarki Wodnej – Państwowego Instytutu Badawczego zostały przetworzone.

Dane źródłowe można odnaleźć na stronie https://dane.imgw.pl